Time;durP1;ratioP1;P1;durP2;ratioP2;P2;SDS_P1;SDS_P2;PMS_P1;PMS_P2;Temp;Humidity;BMP_temperature;BMP_pressure;BME280_temperature;BME280_humidity;BME280_pressure;Samples;Min_cycle;Max_cycle;Signal;HPM_P1;HPM_P2
2022/03/30 01:23:25;;;;;;;4.80;4.30;;;18.20;46.50;;;;;;5051028;28;20229;-75
2022/03/30 01:32:36;;;;;;;5.90;4.40;;;18.20;46.50;;;;;;5055053;28;20656;-76
2022/03/30 01:35:05;;;;;;;6.10;4.40;;;18.20;46.50;;;;;;5055908;28;20540;-75
2022/03/30 01:37:32;;;;;;;5.90;4.47;;;18.20;46.50;;;;;;5037160;28;20181;-75
2022/03/30 01:40:04;;;;;;;6.03;4.30;;;18.20;46.40;;;;;;5040844;28;20239;-76
2022/03/30 01:42:30;;;;;;;5.73;4.20;;;18.10;46.50;;;;;;5040439;28;20465;-76
2022/03/30 01:44:57;;;;;;;4.73;3.90;;;18.10;46.50;;;;;;5057199;28;20558;-76
2022/03/30 01:47:23;;;;;;;4.73;3.77;;;18.00;46.50;;;;;;5040578;28;20178;-76
2022/03/30 01:49:49;;;;;;;4.30;3.90;;;18.00;46.60;;;;;;5040107;28;20214;-77
2022/03/30 01:52:16;;;;;;;6.90;4.30;;;18.00;46.60;;;;;;5056809;28;20170;-77
2022/03/30 01:54:43;;;;;;;4.33;3.73;;;18.00;46.60;;;;;;5039222;28;20269;-76
2022/03/30 01:57:12;;;;;;;6.00;3.93;;;18.00;46.70;;;;;;5062725;28;20168;-77
2022/03/30 01:59:39;;;;;;;5.00;3.53;;;18.00;46.70;;;;;;5041072;28;20193;-76
2022/03/30 02:02:06;;;;;;;4.10;3.50;;;17.90;46.70;;;;;;5041313;28;20244;-76
2022/03/30 02:04:32;;;;;;;4.53;3.60;;;18.00;46.70;;;;;;5040279;28;20189;-76
2022/03/30 02:06:58;;;;;;;5.27;3.53;;;17.90;46.70;;;;;;5040976;28;20197;-76
2022/03/30 02:09:23;;;;;;;4.13;3.57;;;17.90;46.80;;;;;;5058667;28;20292;-76
2022/03/30 02:11:52;;;;;;;4.57;3.50;;;17.90;46.90;;;;;;5058395;28;20231;-76
2022/03/30 02:14:17;;;;;;;4.03;3.63;;;17.90;46.80;;;;;;5039862;28;20172;-74
2022/03/30 02:16:43;;;;;;;4.17;3.70;;;17.90;46.90;;;;;;5039028;28;20181;-76
2022/03/30 02:19:11;;;;;;;4.10;3.33;;;17.90;46.90;;;;;;5056296;28;20632;-76
2022/03/30 02:21:36;;;;;;;5.63;3.70;;;17.90;46.90;;;;;;5039098;28;20198;-76
2022/03/30 02:24:02;;;;;;;4.87;3.57;;;17.90;46.90;;;;;;5039677;28;20179;-76
2022/03/30 02:26:30;;;;;;;4.90;3.30;;;17.80;46.80;;;;;;5040770;28;20193;-76
2022/03/30 02:28:56;;;;;;;4.90;3.77;;;17.80;46.80;;;;;;5058106;28;20198;-75
2022/03/30 02:31:22;;;;;;;4.37;3.60;;;17.80;46.80;;;;;;5040799;28;20171;-75
2022/03/30 02:33:49;;;;;;;5.33;3.50;;;17.90;46.80;;;;;;5040577;28;20176;-75
2022/03/30 02:36:15;;;;;;;5.10;3.70;;;17.80;46.80;;;;;;5038427;28;20366;-76
2022/03/30 02:38:44;;;;;;;5.03;4.00;;;17.90;46.80;;;;;;5038930;28;20201;-75
2022/03/30 02:41:10;;;;;;;4.90;3.80;;;17.80;46.80;;;;;;5038129;28;20173;-76
2022/03/30 02:43:37;;;;;;;4.10;3.43;;;17.80;46.80;;;;;;5040417;28;20248;-75
2022/03/30 02:46:03;;;;;;;4.33;3.40;;;17.80;46.80;;;;;;5040115;28;20198;-76
2022/03/30 02:48:29;;;;;;;4.33;3.70;;;17.80;46.80;;;;;;5039627;28;20206;-76
2022/03/30 02:51:01;;;;;;;4.40;3.50;;;17.80;46.80;;;;;;5040317;28;20235;-76
2022/03/30 02:53:28;;;;;;;5.17;3.30;;;17.80;46.80;;;;;;5056232;28;20162;-76
2022/03/30 02:55:54;;;;;;;4.47;3.50;;;17.80;46.80;;;;;;5057145;28;20173;-76
2022/03/30 02:58:19;;;;;;;5.00;3.70;;;17.70;46.70;;;;;;5038517;28;20248;-76
2022/03/30 03:00:45;;;;;;;4.90;3.70;;;17.70;46.80;;;;;;5054409;28;20166;-76
2022/03/30 03:03:12;;;;;;;4.43;3.70;;;17.70;46.80;;;;;;5037874;28;20172;-76
2022/03/30 03:05:38;;;;;;;4.43;3.73;;;17.70;46.80;;;;;;5038504;28;20177;-76
2022/03/30 03:08:10;;;;;;;5.30;3.80;;;17.70;46.70;;;;;;5038098;28;20209;-76
2022/03/30 03:10:38;;;;;;;4.37;3.70;;;17.80;46.70;;;;;;5038289;28;20503;-76
2022/03/30 03:13:05;;;;;;;4.73;3.53;;;17.80;46.60;;;;;;5055413;28;20633;-76
2022/03/30 03:15:31;;;;;;;5.43;3.57;;;17.80;46.60;;;;;;5036298;28;20485;-77
2022/03/30 03:17:58;;;;;;;4.87;3.90;;;17.80;46.60;;;;;;5055519;28;20167;-76
2022/03/30 03:20:28;;;;;;;4.17;3.73;;;17.80;46.50;;;;;;5037373;28;20171;-76
2022/03/30 03:22:54;;;;;;;5.80;3.60;;;17.90;46.50;;;;;;5037174;28;20255;-76
2022/03/30 03:25:20;;;;;;;4.50;3.53;;;17.90;46.40;;;;;;5035594;28;20440;-76
2022/03/30 03:27:45;;;;;;;4.13;3.50;;;18.00;46.40;;;;;;5036174;28;20173;-76
2022/03/30 03:30:13;;;;;;;5.70;3.70;;;18.00;46.30;;;;;;5036728;28;20171;-76
2022/03/30 03:32:39;;;;;;;5.17;3.50;;;18.00;46.30;;;;;;5036584;28;20166;-76
2022/03/30 03:35:05;;;;;;;5.10;3.80;;;18.00;46.30;;;;;;5054552;28;20178;-76
2022/03/30 03:37:31;;;;;;;5.27;3.73;;;17.90;46.20;;;;;;5037457;28;20178;-76
2022/03/30 03:39:57;;;;;;;4.10;3.20;;;17.90;46.30;;;;;;5055289;28;20170;-75
2022/03/30 03:42:22;;;;;;;4.33;3.20;;;17.90;46.40;;;;;;5036792;28;20174;-76
2022/03/30 03:44:48;;;;;;;4.23;3.40;;;17.80;46.40;;;;;;5035643;28;20213;-76
2022/03/30 03:47:13;;;;;;;5.77;3.30;;;17.70;46.50;;;;;;5036231;28;20178;-75
2022/03/30 03:49:40;;;;;;;4.60;3.40;;;17.60;46.50;;;;;;5036165;28;20206;-76
2022/03/30 03:52:07;;;;;;;4.43;3.50;;;17.60;46.60;;;;;;5042157;28;20428;-76
2022/03/30 03:54:33;;;;;;;4.63;3.50;;;17.50;46.60;;;;;;5036825;28;20195;-76
2022/03/30 03:56:59;;;;;;;4.03;3.43;;;17.50;46.70;;;;;;5036348;28;20178;-76
2022/03/30 03:59:25;;;;;;;4.53;3.33;;;17.50;46.80;;;;;;5035563;28;20179;-76
2022/03/30 04:01:51;;;;;;;3.40;3.10;;;18.30;46.40;;;;;;5052351;28;20543;-76
2022/03/30 04:04:18;;;;;;;4.23;3.20;;;21.30;43.50;;;;;;5053384;28;20170;-76
2022/03/30 04:06:44;;;;;;;4.07;3.20;;;22.50;41.40;;;;;;5037356;28;20173;-75
2022/03/30 04:09:10;;;;;;;3.77;3.10;;;22.40;41.10;;;;;;5036707;28;20222;-76
2022/03/30 04:11:35;;;;;;;3.77;3.00;;;22.30;41.20;;;;;;5051841;28;20167;-76
2022/03/30 04:14:02;;;;;;;4.47;3.33;;;22.70;40.90;;;;;;5052069;28;20229;-76
2022/03/30 04:16:27;;;;;;;4.23;3.37;;;23.30;40.40;;;;;;5034937;28;20466;-76
2022/03/30 04:18:54;;;;;;;5.23;3.40;;;23.80;39.90;;;;;;5035378;28;20178;-76
2022/03/30 04:21:20;;;;;;;5.67;3.43;;;24.00;39.40;;;;;;5035789;28;20187;-76
2022/03/30 04:23:45;;;;;;;4.30;3.50;;;24.30;39.20;;;;;;5036128;28;20190;-76
2022/03/30 04:26:12;;;;;;;3.70;3.10;;;24.40;39.10;;;;;;5035167;28;20261;-76
2022/03/30 04:28:40;;;;;;;3.93;3.07;;;24.40;39.00;;;;;;5051254;28;20281;-76
2022/03/30 04:31:10;;;;;;;4.00;2.97;;;24.20;39.00;;;;;;5051148;28;20164;-76
2022/03/30 04:33:37;;;;;;;5.00;3.40;;;24.10;39.00;;;;;;5032237;28;20156;-76
2022/03/30 04:36:04;;;;;;;4.47;3.27;;;23.80;39.20;;;;;;5033229;28;20164;-76
2022/03/30 04:38:30;;;;;;;5.43;3.60;;;23.60;39.50;;;;;;5035347;28;20266;-76
2022/03/30 04:40:56;;;;;;;4.83;3.23;;;23.40;39.70;;;;;;5033927;28;20217;-76
2022/03/30 04:43:22;;;;;;;3.97;3.43;;;23.00;39.90;;;;;;5038925;28;20459;-76
2022/03/30 04:45:48;;;;;;;6.00;3.80;;;22.80;40.10;;;;;;5033836;28;20222;-75
2022/03/30 04:48:13;;;;;;;3.97;3.47;;;22.50;40.30;;;;;;5034104;28;20523;-76
2022/03/30 04:50:39;;;;;;;3.63;3.00;;;22.20;40.70;;;;;;5033826;28;20476;-76
2022/03/30 04:53:05;;;;;;;4.30;3.23;;;21.90;41.10;;;;;;5033190;28;20451;-76
2022/03/30 04:55:31;;;;;;;4.63;2.87;;;21.60;41.30;;;;;;5033447;28;20189;-76
2022/03/30 04:57:57;;;;;;;3.77;3.00;;;21.30;41.60;;;;;;5033899;28;20175;-76
2022/03/30 05:02:52;;;;;;;3.47;3.13;;;20.80;42.20;;;;;;5051132;28;20238;-19
2022/03/30 05:05:18;;;;;;;3.50;2.90;;;20.60;42.50;;;;;;5051782;28;20447;-16
2022/03/30 05:07:43;;;;;;;5.40;2.97;;;20.40;42.80;;;;;;5051117;28;20174;-16
2022/03/30 05:10:11;;;;;;;4.57;3.10;;;20.20;43.00;;;;;;5050848;28;20171;-17
2022/03/30 05:12:37;;;;;;;5.73;2.90;;;20.00;43.30;;;;;;5050315;28;20490;-17
2022/03/30 05:15:03;;;;;;;3.60;2.90;;;19.80;43.50;;;;;;5032755;28;20177;-20
2022/03/30 05:17:29;;;;;;;3.63;2.53;;;19.60;43.80;;;;;;5050371;28;20173;-17
2022/03/30 05:19:54;;;;;;;3.13;2.50;;;19.40;44.00;;;;;;5049642;28;20198;-18
2022/03/30 05:22:20;;;;;;;3.53;2.60;;;19.30;44.20;;;;;;5050129;28;20176;-17
2022/03/30 05:24:46;;;;;;;3.80;3.10;;;19.30;44.30;;;;;;5049906;28;20269;-20
2022/03/30 05:27:12;;;;;;;3.80;2.77;;;19.10;44.50;;;;;;5049057;28;20223;-17
2022/03/30 05:29:37;;;;;;;3.67;2.50;;;19.00;44.70;;;;;;5049932;28;20336;-17
2022/03/30 05:32:03;;;;;;;4.50;2.80;;;18.80;44.80;;;;;;5049064;28;20572;-19
2022/03/30 05:34:29;;;;;;;3.70;2.73;;;18.70;45.00;;;;;;5049400;28;20264;-18
2022/03/30 05:36:56;;;;;;;3.70;3.00;;;18.60;45.20;;;;;;5049271;28;20323;-21
2022/03/30 05:39:23;;;;;;;4.17;2.80;;;18.50;45.30;;;;;;5047516;28;20217;-18
2022/03/30 05:41:48;;;;;;;3.87;3.00;;;18.40;45.50;;;;;;5048805;28;20189;-20
2022/03/30 05:44:14;;;;;;;2.97;2.67;;;18.40;45.50;;;;;;5049102;28;20337;-17
2022/03/30 05:46:40;;;;;;;4.53;2.70;;;18.50;45.40;;;;;;5030677;28;20182;-19
2022/03/30 05:49:07;;;;;;;4.27;2.97;;;18.80;45.20;;;;;;5029715;28;20215;-17
2022/03/30 05:51:32;;;;;;;5.20;2.90;;;19.00;44.90;;;;;;5048962;28;20171;-19
2022/03/30 05:53:58;;;;;;;4.57;2.77;;;19.50;44.40;;;;;;5030751;28;20184;-19
2022/03/30 05:59:11;;;;;;;4.07;2.77;;;21.80;42.30;;;;;;5048638;28;20383;-16
2022/03/30 06:01:37;;;;;;;7.23;3.27;;;22.60;41.00;;;;;;5047793;28;20195;-21
2022/03/30 06:04:03;;;;;;;4.17;2.73;;;22.90;40.60;;;;;;5031639;28;20439;-16
2022/03/30 06:06:28;;;;;;;7.10;2.90;;;23.20;40.30;;;;;;5050246;28;20187;-18
2022/03/30 06:08:54;;;;;;;5.37;3.03;;;23.20;40.10;;;;;;5029629;28;20208;-20
2022/03/30 06:11:20;;;;;;;3.37;2.50;;;23.10;40.70;;;;;;5048511;28;20271;-18
2022/03/30 06:13:46;;;;;;;5.37;3.07;;;22.80;40.40;;;;;;5049320;28;20171;-18
2022/03/30 06:16:14;;;;;;;4.50;2.93;;;22.60;40.70;;;;;;5032636;28;20172;-20
2022/03/30 06:18:40;;;;;;;5.00;3.30;;;22.40;41.00;;;;;;5051752;28;20294;-16
2022/03/30 06:21:05;;;;;;;5.13;3.53;;;22.10;41.30;;;;;;5033545;28;20284;-21
2022/03/30 06:23:32;;;;;;;5.03;3.03;;;21.80;41.60;;;;;;5034520;28;20172;-18
2022/03/30 06:25:57;;;;;;;4.53;3.10;;;21.60;41.90;;;;;;5052131;28;20567;-16
2022/03/30 06:28:26;;;;;;;6.03;3.43;;;21.40;42.20;;;;;;5050499;28;20372;-19
2022/03/30 06:30:52;;;;;;;4.40;3.03;;;21.20;42.40;;;;;;5034591;28;20195;-17
2022/03/30 06:33:18;;;;;;;6.17;3.60;;;21.00;42.70;;;;;;5051124;28;20494;-19
2022/03/30 06:35:43;;;;;;;5.63;3.53;;;20.90;42.90;;;;;;5051991;28;20214;-17
2022/03/30 06:38:10;;;;;;;6.67;3.53;;;20.80;43.10;;;;;;5051277;28;20177;-17
2022/03/30 06:40:36;;;;;;;5.20;3.57;;;20.60;43.30;;;;;;5051380;28;20188;-17
2022/03/30 06:43:01;;;;;;;6.20;3.90;;;20.40;43.40;;;;;;5051729;28;20184;-19
2022/03/30 06:45:27;;;;;;;6.77;3.60;;;20.30;43.70;;;;;;5033345;28;20200;-16
2022/03/30 06:47:53;;;;;;;8.43;4.13;;;20.10;43.90;;;;;;5032778;28;20184;-19
2022/03/30 06:50:20;;;;;;;7.43;3.97;;;20.00;44.00;;;;;;5051294;28;20172;-17
2022/03/30 06:52:49;;;;;;;6.57;3.90;;;19.90;44.20;;;;;;5032941;28;20218;-21
2022/03/30 06:55:15;;;;;;;7.93;4.20;;;19.80;44.20;;;;;;5050957;28;20589;-20
2022/03/30 06:57:44;;;;;;;7.27;3.50;;;19.70;44.30;;;;;;5033436;28;20467;-17
2022/03/30 07:00:13;;;;;;;5.97;3.80;;;19.60;44.40;;;;;;5050990;28;20734;-19
2022/03/30 07:02:39;;;;;;;7.97;3.90;;;19.50;44.40;;;;;;5049153;28;20310;-19
2022/03/30 07:05:06;;;;;;;9.97;4.10;;;19.50;44.50;;;;;;5050514;28;20453;-19
2022/03/30 07:10:18;;;;;;;5.27;3.67;;;19.40;44.60;;;;;;5051000;28;20258;-21
2022/03/30 07:12:49;;;;;;;6.93;4.17;;;19.80;44.30;;;;;;5049832;28;20490;-17
2022/03/30 07:15:16;;;;;;;6.57;4.13;;;20.10;44.00;;;;;;5031796;28;20168;-20
2022/03/30 07:17:50;;;;;;;7.00;4.00;;;20.50;43.60;;;;;;5049335;28;20183;-20
2022/03/30 07:20:18;;;;;;;6.70;3.97;;;21.00;43.10;;;;;;5050779;28;20156;-18
2022/03/30 07:22:45;;;;;;;9.37;4.10;;;21.50;42.50;;;;;;5049320;28;20402;-22
2022/03/30 07:25:11;;;;;;;7.53;3.87;;;22.20;41.80;;;;;;5050262;28;20162;-20
2022/03/30 07:27:42;;;;;;;6.70;4.07;;;22.90;41.20;;;;;;5049984;28;20167;-21
2022/03/30 07:30:08;;;;;;;12.90;4.17;;;23.30;41.00;;;;;;5049912;28;20525;-19
2022/03/30 07:32:36;;;;;;;6.97;4.10;;;23.70;40.20;;;;;;5050659;28;20175;-22
2022/03/30 07:35:03;;;;;;;7.57;4.50;;;23.80;39.90;;;;;;5050151;28;20171;-21
2022/03/30 07:37:29;;;;;;;5.90;3.70;;;23.80;39.90;;;;;;5051092;28;20244;-20
2022/03/30 07:39:55;;;;;;;6.53;3.53;;;23.80;39.90;;;;;;5049883;28;20503;-21
2022/03/30 07:42:21;;;;;;;6.57;3.60;;;23.60;40.00;;;;;;5049927;28;20251;-22
2022/03/30 07:44:46;;;;;;;5.43;3.77;;;23.50;40.20;;;;;;5051338;28;20550;-22
2022/03/30 07:47:12;;;;;;;6.20;3.90;;;23.20;40.30;;;;;;5049767;28;20168;-19
2022/03/30 07:49:38;;;;;;;5.37;4.03;;;23.10;40.50;;;;;;5049847;28;20764;-21
2022/03/30 07:52:04;;;;;;;5.43;3.90;;;22.90;40.70;;;;;;5050064;28;20164;-20
2022/03/30 07:54:31;;;;;;;5.93;3.93;;;22.70;40.90;;;;;;5032921;28;20172;-20
2022/03/30 07:56:57;;;;;;;7.30;4.13;;;22.50;41.10;;;;;;5050820;28;20194;-19
2022/03/30 07:59:23;;;;;;;7.10;3.90;;;22.30;41.30;;;;;;5049791;28;20438;-24
2022/03/30 08:01:48;;;;;;;6.57;3.97;;;22.20;41.50;;;;;;5031658;28;20638;-20
2022/03/30 08:04:14;;;;;;;8.27;4.23;;;22.00;41.60;;;;;;5050233;28;20412;-21
2022/03/30 08:06:40;;;;;;;5.73;3.80;;;21.90;41.90;;;;;;5032052;28;20364;-21
2022/03/30 08:09:06;;;;;;;6.97;4.23;;;21.70;42.00;;;;;;5048013;28;20599;-19
2022/03/30 08:11:31;;;;;;;5.67;3.70;;;21.60;42.20;;;;;;5048854;28;20168;-20
2022/03/30 08:13:58;;;;;;;5.60;3.70;;;21.40;42.30;;;;;;5047889;28;20161;-18
2022/03/30 08:16:23;;;;;;;6.07;3.73;;;21.40;42.40;;;;;;5030999;28;20263;-18
2022/03/30 08:18:49;;;;;;;5.30;3.93;;;21.30;42.50;;;;;;5047946;28;20709;-21
2022/03/30 08:23:59;;;;;;;6.83;4.20;;;21.40;42.50;;;;;;5047600;28;20515;-21
2022/03/30 08:26:25;;;;;;;6.17;3.70;;;21.20;42.60;;;;;;5029912;28;20247;-19
2022/03/30 08:28:51;;;;;;;5.10;3.87;;;21.10;42.80;;;;;;5047421;28;20204;-22
2022/03/30 08:31:16;;;;;;;5.63;4.03;;;21.00;42.90;;;;;;5050200;28;20203;-21
2022/03/30 08:33:43;;;;;;;5.30;3.67;;;21.10;43.00;;;;;;5029702;28;20487;-21
2022/03/30 08:36:08;;;;;;;6.37;4.20;;;21.10;42.90;;;;;;5048525;28;20181;-21
2022/03/30 08:38:34;;;;;;;6.27;4.20;;;21.20;42.90;;;;;;5030607;28;20173;-22
2022/03/30 08:41:00;;;;;;;7.53;4.20;;;21.20;42.90;;;;;;5048965;28;20654;-23
2022/03/30 08:43:27;;;;;;;6.90;4.20;;;21.20;42.80;;;;;;5030865;28;20187;-21
2022/03/30 08:45:59;;;;;;;6.13;4.37;;;21.10;42.90;;;;;;5050554;28;20172;-24
2022/03/30 08:48:25;;;;;;;6.77;4.13;;;21.10;43.00;;;;;;5049467;28;20188;-20
2022/03/30 08:50:51;;;;;;;6.73;4.30;;;21.10;43.10;;;;;;5048745;28;20406;-21
2022/03/30 08:53:18;;;;;;;8.03;4.43;;;21.20;43.10;;;;;;5047303;28;20175;-21
2022/03/30 08:55:44;;;;;;;7.27;4.83;;;21.40;42.90;;;;;;5031219;28;20191;-19
2022/03/30 08:58:10;;;;;;;8.53;4.90;;;21.80;42.60;;;;;;5047384;28;20445;-22
2022/03/30 09:00:36;;;;;;;8.63;4.60;;;22.20;42.10;;;;;;5046850;28;20407;-20
2022/03/30 09:03:03;;;;;;;7.73;4.93;;;22.60;41.70;;;;;;5047157;28;20258;-21
2022/03/30 09:05:33;;;;;;;7.43;4.30;;;23.10;41.10;;;;;;5030275;28;20176;-21
2022/03/30 09:08:14;;;;;;;6.93;4.37;;;23.60;40.60;;;;;;5044320;28;20181;-23
2022/03/30 09:10:46;;;;;;;6.80;4.13;;;24.00;40.20;;;;;;5054241;28;20471;-21
2022/03/30 09:13:14;;;;;;;5.63;3.80;;;24.20;39.90;;;;;;5053906;28;20215;-23
2022/03/30 09:15:41;;;;;;;7.13;4.67;;;24.20;39.80;;;;;;5053540;28;20164;-22
2022/03/30 09:18:08;;;;;;;8.57;4.20;;;24.10;39.80;;;;;;5054442;28;20173;-22
2022/03/30 09:20:39;;;;;;;7.23;4.23;;;24.10;39.80;;;;;;5036852;28;20184;-22
2022/03/30 09:23:06;;;;;;;8.13;3.90;;;24.10;39.80;;;;;;5053623;28;20156;-22
2022/03/30 09:25:32;;;;;;;6.77;4.40;;;23.90;39.90;;;;;;5051291;28;20164;-22
2022/03/30 09:28:00;;;;;;;6.60;4.47;;;23.70;40.00;;;;;;5033393;28;20184;-22
2022/03/30 09:30:30;;;;;;;6.63;4.30;;;23.70;40.10;;;;;;5036112;28;20219;-23
2022/03/30 09:32:58;;;;;;;5.27;3.77;;;23.60;40.20;;;;;;5054316;28;20634;-20
2022/03/30 09:35:33;;;;;;;7.60;4.40;;;23.50;40.30;;;;;;5054312;28;20255;-22
2022/03/30 09:38:14;;;;;;;7.07;4.20;;;23.20;40.30;;;;;;5052738;28;20278;-24
2022/03/30 09:41:00;;;;;;;6.83;4.10;;;22.90;40.60;;;;;;5054235;28;20164;-24
2022/03/30 09:43:28;;;;;;;5.60;3.70;;;22.50;40.90;;;;;;5036157;28;20263;-21
2022/03/30 09:46:08;;;;;;;7.50;4.50;;;22.20;41.30;;;;;;5042363;28;20195;-21
2022/03/30 09:48:38;;;;;;;5.73;3.90;;;21.80;41.70;;;;;;5054008;28;20237;-23
2022/03/30 09:51:06;;;;;;;6.60;4.57;;;21.60;42.00;;;;;;5054624;28;20191;-22
2022/03/30 09:53:33;;;;;;;7.33;4.00;;;21.40;42.30;;;;;;5033457;28;20551;-24
2022/03/30 09:56:18;;;;;;;8.10;4.50;;;21.10;42.50;;;;;;5053758;28;20271;-22
2022/03/30 09:58:44;;;;;;;6.30;4.40;;;21.00;42.70;;;;;;5057096;28;20177;-25
2022/03/30 10:01:19;;;;;;;5.23;4.40;;;20.80;43.30;;;;;;5057362;28;20418;-22
2022/03/30 10:03:54;;;;;;;7.73;4.23;;;20.70;43.00;;;;;;5057265;28;20214;-24
2022/03/30 10:06:22;;;;;;;6.93;4.73;;;20.60;43.10;;;;;;5039714;28;20179;-24
2022/03/30 10:08:50;;;;;;;7.80;4.63;;;20.50;43.20;;;;;;5036441;28;20220;-24
2022/03/30 10:11:16;;;;;;;8.00;5.00;;;20.40;43.30;;;;;;5050444;28;20255;-21
2022/03/30 10:13:48;;;;;;;6.73;4.63;;;20.40;43.50;;;;;;5050981;28;20408;-21
2022/03/30 10:16:17;;;;;;;6.77;5.07;;;20.30;43.50;;;;;;5049730;28;20200;-23
2022/03/30 10:18:43;;;;;;;7.77;4.73;;;20.30;43.60;;;;;;5031799;28;20179;-22
2022/03/30 10:21:17;;;;;;;5.60;4.10;;;20.20;43.70;;;;;;5050088;28;20446;-22
2022/03/30 10:24:11;;;;;;;7.60;4.50;;;20.10;43.80;;;;;;5032250;28;20250;-23
2022/03/30 10:26:51;;;;;;;6.13;4.43;;;20.10;43.80;;;;;;5049328;28;20234;-22
2022/03/30 10:29:18;;;;;;;6.53;4.57;;;20.00;43.90;;;;;;5032389;28;20272;-22
2022/03/30 10:32:12;;;;;;;7.57;4.87;;;19.90;44.00;;;;;;5031728;28;20200;-23
2022/03/30 10:34:50;;;;;;;5.73;4.30;;;19.90;44.10;;;;;;5049485;28;20169;-20
2022/03/30 10:37:24;;;;;;;6.17;4.50;;;19.80;44.20;;;;;;5045495;28;20172;-21
2022/03/30 10:40:05;;;;;;;6.20;4.70;;;19.80;44.20;;;;;;5049293;28;20176;-22
2022/03/30 10:42:46;;;;;;;7.67;4.40;;;19.70;44.20;;;;;;5048248;28;20168;-21
2022/03/30 10:45:23;;;;;;;5.50;4.20;;;19.70;44.20;;;;;;5031055;28;20173;-21
2022/03/30 10:48:09;;;;;;;7.60;4.50;;;19.80;44.20;;;;;;5047437;28;20170;-21
2022/03/30 10:50:37;;;;;;;4.80;3.90;;;19.80;44.10;;;;;;5047703;28;20247;-23
2022/03/30 10:53:02;;;;;;;6.77;4.63;;;19.90;44.10;;;;;;5047903;28;20174;-21
2022/03/30 10:55:33;;;;;;;6.43;4.23;;;20.00;44.00;;;;;;5048567;28;20190;-18
2022/03/30 10:58:04;;;;;;;5.47;4.00;;;20.00;43.90;;;;;;5047896;28;20204;-21
2022/03/30 11:00:34;;;;;;;6.57;3.53;;;20.00;43.80;;;;;;5047802;28;20239;-21
2022/03/30 11:03:14;;;;;;;5.90;4.33;;;20.10;43.90;;;;;;5047360;28;20392;-21
2022/03/30 11:05:58;;;;;;;5.73;4.10;;;20.10;43.80;;;;;;5047380;28;20160;-22
2022/03/30 11:08:33;;;;;;;6.47;4.03;;;20.10;43.80;;;;;;5024683;28;20200;-22
2022/03/30 11:11:19;;;;;;;5.53;3.90;;;20.10;43.80;;;;;;5047080;28;20178;-20
2022/03/30 11:13:45;;;;;;;6.33;4.23;;;20.10;43.80;;;;;;5048491;28;20457;-21
2022/03/30 11:16:11;;;;;;;5.17;3.50;;;20.10;43.80;;;;;;5047016;28;20564;-21
2022/03/30 11:18:54;;;;;;;5.70;4.10;;;20.10;43.70;;;;;;5048608;28;20172;-19
2022/03/30 11:21:20;;;;;;;5.27;3.57;;;20.20;43.70;;;;;;5029487;28;20283;-20
2022/03/30 11:24:05;;;;;;;6.27;3.50;;;20.20;43.70;;;;;;5048164;28;20206;-19
2022/03/30 11:26:50;;;;;;;4.70;3.47;;;20.20;43.70;;;;;;5028448;28;20442;-20
2022/03/30 11:29:40;;;;;;;5.40;3.57;;;20.30;43.70;;;;;;5029205;28;20493;-20
2022/03/30 11:32:24;;;;;;;4.87;3.57;;;20.30;43.70;;;;;;5048376;28;20261;-20
2022/03/30 11:34:58;;;;;;;4.57;3.27;;;20.20;43.70;;;;;;5047015;28;20172;-21
2022/03/30 11:37:35;;;;;;;5.50;3.47;;;20.10;43.80;;;;;;5046993;28;20192;-21
2022/03/30 11:40:04;;;;;;;4.67;3.37;;;20.00;44.00;;;;;;5046790;28;20172;-20
2022/03/30 11:42:31;;;;;;;4.87;3.60;;;19.90;44.00;;;;;;5028428;28;20172;-18
2022/03/30 11:45:13;;;;;;;4.27;3.50;;;19.90;44.10;;;;;;5046629;28;20420;-21
2022/03/30 11:47:45;;;;;;;5.20;3.70;;;19.80;44.20;;;;;;5047196;28;20172;-19
2022/03/30 11:50:17;;;;;;;5.13;3.53;;;19.80;44.30;;;;;;5049420;28;20207;-20
2022/03/30 11:52:57;;;;;;;4.47;3.37;;;19.70;44.30;;;;;;5031933;28;20478;-21
2022/03/30 11:55:23;;;;;;;6.10;3.53;;;19.70;44.40;;;;;;5028158;28;20181;-18
2022/03/30 11:57:52;;;;;;;5.67;3.47;;;19.70;44.50;;;;;;5046757;28;20568;-19
2022/03/30 12:00:21;;;;;;;4.97;3.63;;;19.60;44.50;;;;;;5048446;28;20594;-19
2022/03/30 12:02:46;;;;;;;7.80;3.57;;;19.60;44.60;;;;;;5048518;28;20567;-20
2022/03/30 12:05:12;;;;;;;7.67;3.73;;;19.60;44.60;;;;;;5029271;28;20184;-21
2022/03/30 12:07:39;;;;;;;6.57;3.30;;;19.60;44.60;;;;;;5028423;28;20412;-21
2022/03/30 12:10:16;;;;;;;4.97;3.10;;;19.60;44.60;;;;;;5028699;28;20204;-18
2022/03/30 12:12:43;;;;;;;5.27;3.27;;;19.60;44.60;;;;;;5047841;28;20259;-20
2022/03/30 12:15:17;;;;;;;6.23;3.50;;;19.60;44.60;;;;;;5046826;28;20160;-16
2022/03/30 12:17:50;;;;;;;7.07;3.40;;;19.70;44.60;;;;;;5047644;28;20229;-21
2022/03/30 12:20:34;;;;;;;5.93;3.60;;;19.70;44.60;;;;;;5046842;28;20226;-18
2022/03/30 12:23:03;;;;;;;3.93;3.30;;;19.70;44.50;;;;;;5030287;28;20358;-17
2022/03/30 12:25:32;;;;;;;5.07;3.23;;;19.70;44.50;;;;;;5047693;28;20172;-17
2022/03/30 12:27:59;;;;;;;5.27;3.47;;;19.70;44.40;;;;;;5047299;28;20181;-19
2022/03/30 12:30:25;;;;;;;5.80;3.17;;;19.80;44.40;;;;;;5030256;28;20378;-18
2022/03/30 12:32:51;;;;;;;5.23;3.23;;;19.80;44.30;;;;;;5047322;28;20559;-20
2022/03/30 12:35:18;;;;;;;5.40;3.33;;;19.80;44.30;;;;;;5047197;28;20199;-18
2022/03/30 12:37:46;;;;;;;4.57;3.30;;;19.80;44.40;;;;;;5029180;28;20260;-19
2022/03/30 12:40:21;;;;;;;4.70;3.53;;;19.90;44.40;;;;;;5046912;28;20269;-20
2022/03/30 12:42:48;;;;;;;6.10;3.90;;;19.90;44.40;;;;;;5046882;28;20170;-21
2022/03/30 12:45:17;;;;;;;6.83;3.47;;;19.90;44.40;;;;;;5046697;28;20243;-21
2022/03/30 12:47:50;;;;;;;5.17;3.60;;;19.90;44.40;;;;;;5044574;28;20252;-20
2022/03/30 12:50:23;;;;;;;6.77;3.63;;;19.90;44.40;;;;;;5047086;28;20196;-20
2022/03/30 12:52:52;;;;;;;5.50;3.40;;;19.80;44.40;;;;;;5045940;28;20163;-19
2022/03/30 12:55:27;;;;;;;3.50;3.20;;;19.90;44.40;;;;;;5028960;28;20178;-20
2022/03/30 12:57:56;;;;;;;5.43;3.50;;;19.90;44.30;;;;;;5029221;28;20678;-18
2022/03/30 13:00:29;;;;;;;4.17;3.20;;;19.90;44.20;;;;;;5029692;28;20421;-19
2022/03/30 13:03:15;;;;;;;4.77;3.50;;;19.90;44.30;;;;;;5046624;28;20214;-19
2022/03/30 13:06:03;;;;;;;5.67;3.50;;;19.90;44.30;;;;;;5029529;28;20416;-18
2022/03/30 13:08:29;;;;;;;6.20;3.70;;;19.90;44.30;;;;;;5046851;28;20190;-20
2022/03/30 13:11:00;;;;;;;6.47;3.50;;;20.00;44.20;;;;;;5047295;28;20350;-20
2022/03/30 13:13:37;;;;;;;6.37;3.57;;;20.00;44.20;;;;;;5046900;28;20332;-18
2022/03/30 13:16:11;;;;;;;4.63;3.37;;;20.00;44.20;;;;;;5043281;28;20174;-21
2022/03/30 13:18:38;;;;;;;5.40;3.70;;;19.90;44.20;;;;;;5045815;28;20177;-20
2022/03/30 13:21:09;;;;;;;5.27;3.50;;;19.90;44.20;;;;;;5025691;28;20284;-19
2022/03/30 13:23:45;;;;;;;5.33;3.50;;;20.00;44.20;;;;;;5035060;28;20563;-21
2022/03/30 13:26:44;;;;;;;4.37;3.57;;;20.00;44.60;;;;;;5035168;28;20203;-19
2022/03/30 13:29:12;;;;;;;5.40;3.40;;;20.00;44.30;;;;;;4976424;28;20218;-20
2022/03/30 13:31:43;;;;;;;6.03;3.47;;;19.90;44.20;;;;;;5012367;28;20182;-19
2022/03/30 13:34:10;;;;;;;6.43;3.30;;;19.90;44.30;;;;;;5030534;28;20168;-16
2022/03/30 13:36:38;;;;;;;6.07;3.70;;;19.90;44.20;;;;;;5012528;28;20612;-18
2022/03/30 13:39:05;;;;;;;5.37;3.40;;;19.90;44.30;;;;;;5012374;28;20218;-18
2022/03/30 13:41:31;;;;;;;5.63;3.50;;;19.90;44.20;;;;;;5039773;28;20169;-18
2022/03/30 13:43:58;;;;;;;5.13;3.20;;;19.90;44.20;;;;;;5034051;28;20252;-19
2022/03/30 13:46:24;;;;;;;3.83;3.20;;;20.00;44.70;;;;;;5051815;28;20569;-18
2022/03/30 13:48:50;;;;;;;5.67;3.40;;;20.00;44.20;;;;;;5038024;28;20753;-19
2022/03/30 13:51:16;;;;;;;4.90;3.20;;;20.00;44.20;;;;;;5034708;28;20620;-18
2022/03/30 13:53:43;;;;;;;5.27;3.40;;;19.90;44.20;;;;;;5028968;28;20172;-19
2022/03/30 13:56:10;;;;;;;4.97;3.20;;;19.90;44.30;;;;;;5021759;28;20173;-21
2022/03/30 13:58:36;;;;;;;6.80;3.40;;;19.90;44.30;;;;;;5038042;28;20165;-19
2022/03/30 14:01:04;;;;;;;4.90;3.43;;;19.90;44.40;;;;;;5038118;28;20209;-16
2022/03/30 14:03:30;;;;;;;5.40;3.23;;;19.90;44.30;;;;;;5056969;28;20248;-18
2022/03/30 14:05:56;;;;;;;4.40;3.03;;;19.90;44.30;;;;;;5049867;28;20369;-16
2022/03/30 14:08:23;;;;;;;4.77;3.23;;;19.80;44.20;;;;;;5049860;28;20685;-20
2022/03/30 14:10:50;;;;;;;4.57;3.30;;;19.80;44.30;;;;;;5050234;28;20268;-17
2022/03/30 14:13:18;;;;;;;6.20;3.63;;;19.80;44.30;;;;;;5054063;28;20209;-21
2022/03/30 14:15:45;;;;;;;4.67;3.47;;;19.80;44.30;;;;;;5037911;28;20255;-20
2022/03/30 14:18:11;;;;;;;4.23;3.03;;;19.80;44.20;;;;;;5048898;28;20203;-19
2022/03/30 14:20:37;;;;;;;4.50;3.43;;;19.90;44.20;;;;;;5036278;28;20168;-21
2022/03/30 14:23:06;;;;;;;4.27;3.07;;;19.80;44.20;;;;;;5033429;28;20166;-20
2022/03/30 14:25:33;;;;;;;4.60;2.83;;;19.90;44.30;;;;;;5052598;28;20268;-19
2022/03/30 14:28:06;;;;;;;4.93;3.10;;;19.90;44.30;;;;;;5057263;28;20556;-19
2022/03/30 14:30:33;;;;;;;4.63;3.13;;;19.90;44.30;;;;;;5056166;28;20233;-20
2022/03/30 14:33:03;;;;;;;4.33;3.17;;;19.80;44.30;;;;;;5056942;28;20248;-19
2022/03/30 14:35:29;;;;;;;5.67;2.93;;;19.80;44.30;;;;;;5038603;28;20171;-20